sensor_id;sensor_type;location;lat;lon;timestamp;temperature;humidity
54558;DHT22;40452;50.080;20.040;2022-12-18T00:02:11;20.30;30.40
54558;DHT22;40452;50.080;20.040;2022-12-18T00:04:37;20.30;30.30
54558;DHT22;40452;50.080;20.040;2022-12-18T00:07:02;20.30;30.30
54558;DHT22;40452;50.080;20.040;2022-12-18T00:09:28;20.30;30.20
54558;DHT22;40452;50.080;20.040;2022-12-18T00:11:53;20.30;30.40
54558;DHT22;40452;50.080;20.040;2022-12-18T00:14:19;20.30;30.50
54558;DHT22;40452;50.080;20.040;2022-12-18T00:16:45;20.30;30.20
54558;DHT22;40452;50.080;20.040;2022-12-18T00:19:13;20.30;30.30
54558;DHT22;40452;50.080;20.040;2022-12-18T00:21:39;20.30;30.40
54558;DHT22;40452;50.080;20.040;2022-12-18T00:24:05;20.30;30.50
54558;DHT22;40452;50.080;20.040;2022-12-18T08:01:26;20.00;30.60
54558;DHT22;40452;50.080;20.040;2022-12-18T08:03:52;20.40;31.50
54558;DHT22;40452;50.080;20.040;2022-12-18T08:06:18;20.40;31.20
54558;DHT22;40452;50.080;20.040;2022-12-18T08:08:43;20.50;31.30
54558;DHT22;40452;50.080;20.040;2022-12-18T08:11:08;20.50;31.50
54558;DHT22;40452;50.080;20.040;2022-12-18T08:13:34;20.40;31.40
54558;DHT22;40452;50.080;20.040;2022-12-18T08:16:02;20.40;31.70
54558;DHT22;40452;50.080;20.040;2022-12-18T08:18:28;20.40;31.90
54558;DHT22;40452;50.080;20.040;2022-12-18T08:20:54;20.50;31.80
54558;DHT22;40452;50.080;20.040;2022-12-18T08:23:20;20.50;31.80
54558;DHT22;40452;50.080;20.040;2022-12-18T08:25:46;20.50;31.60
54558;DHT22;40452;50.080;20.040;2022-12-18T08:28:11;20.50;31.80
54558;DHT22;40452;50.080;20.040;2022-12-18T08:30:37;20.60;31.60
54558;DHT22;40452;50.080;20.040;2022-12-18T08:33:03;20.60;31.60
54558;DHT22;40452;50.080;20.040;2022-12-18T08:35:28;20.60;31.90
54558;DHT22;40452;50.080;20.040;2022-12-18T08:37:54;20.60;31.90
54558;DHT22;40452;50.080;20.040;2022-12-18T08:40:20;20.60;32.70
54558;DHT22;40452;50.080;20.040;2022-12-18T08:42:46;20.70;32.50
54558;DHT22;40452;50.080;20.040;2022-12-18T08:45:30;20.80;33.00
54558;DHT22;40452;50.080;20.040;2022-12-18T08:47:58;20.80;33.60
54558;DHT22;40452;50.080;20.040;2022-12-18T08:50:23;20.80;33.90
54558;DHT22;40452;50.080;20.040;2022-12-18T08:52:49;20.90;33.50
54558;DHT22;40452;50.080;20.040;2022-12-18T08:55:15;20.80;33.30
54558;DHT22;40452;50.080;20.040;2022-12-18T08:57:40;20.80;33.10
54558;DHT22;40452;50.080;20.040;2022-12-18T09:00:06;20.80;33.00
54558;DHT22;40452;50.080;20.040;2022-12-18T09:02:32;20.80;33.10
54558;DHT22;40452;50.080;20.040;2022-12-18T09:04:58;20.80;32.80
54558;DHT22;40452;50.080;20.040;2022-12-18T09:07:23;20.90;32.80
54558;DHT22;40452;50.080;20.040;2022-12-18T09:09:49;20.90;32.70
54558;DHT22;40452;50.080;20.040;2022-12-18T09:12:14;20.90;33.20
54558;DHT22;40452;50.080;20.040;2022-12-18T09:14:40;20.90;32.70
54558;DHT22;40452;50.080;20.040;2022-12-18T09:17:05;20.90;32.60
54558;DHT22;40452;50.080;20.040;2022-12-18T09:19:31;21.00;32.50
54558;DHT22;40452;50.080;20.040;2022-12-18T09:21:56;20.90;32.50
54558;DHT22;40452;50.080;20.040;2022-12-18T09:24:22;20.90;32.60
54558;DHT22;40452;50.080;20.040;2022-12-18T09:26:47;20.90;32.40
54558;DHT22;40452;50.080;20.040;2022-12-18T09:29:14;20.90;32.30
54558;DHT22;40452;50.080;20.040;2022-12-18T09:31:40;20.90;32.10
54558;DHT22;40452;50.080;20.040;2022-12-18T09:34:05;20.90;32.10
54558;DHT22;40452;50.080;20.040;2022-12-18T09:36:31;20.90;32.20
54558;DHT22;40452;50.080;20.040;2022-12-18T09:38:57;20.80;32.10
54558;DHT22;40452;50.080;20.040;2022-12-18T09:46:49;20.80;31.70
54558;DHT22;40452;50.080;20.040;2022-12-18T09:49:21;20.90;31.80
54558;DHT22;40452;50.080;20.040;2022-12-18T09:51:52;20.90;32.30
54558;DHT22;40452;50.080;20.040;2022-12-18T09:54:28;20.90;32.40
54558;DHT22;40452;50.080;20.040;2022-12-18T09:56:55;20.90;32.50
54558;DHT22;40452;50.080;20.040;2022-12-18T09:59:26;20.80;32.40
54558;DHT22;40452;50.080;20.040;2022-12-18T10:01:52;20.80;32.60
54558;DHT22;40452;50.080;20.040;2022-12-18T10:04:18;20.80;32.70
54558;DHT22;40452;50.080;20.040;2022-12-18T10:06:57;20.80;32.80
54558;DHT22;40452;50.080;20.040;2022-12-18T10:09:50;20.80;32.60
54558;DHT22;40452;50.080;20.040;2022-12-18T10:18:17;20.80;32.90
54558;DHT22;40452;50.080;20.040;2022-12-18T10:20:48;20.80;32.70
54558;DHT22;40452;50.080;20.040;2022-12-18T10:23:33;20.80;32.90
54558;DHT22;40452;50.080;20.040;2022-12-18T10:26:11;20.80;33.40
54558;DHT22;40452;50.080;20.040;2022-12-18T10:28:39;20.90;34.30
54558;DHT22;40452;50.080;20.040;2022-12-18T10:31:06;20.90;34.60
54558;DHT22;40452;50.080;20.040;2022-12-18T10:33:33;20.90;34.70
54558;DHT22;40452;50.080;20.040;2022-12-18T10:35:59;20.80;35.30
54558;DHT22;40452;50.080;20.040;2022-12-18T10:38:30;20.80;35.30
54558;DHT22;40452;50.080;20.040;2022-12-18T10:40:59;20.80;35.20
54558;DHT22;40452;50.080;20.040;2022-12-18T10:46:08;20.80;35.20
54558;DHT22;40452;50.080;20.040;2022-12-18T10:51:09;20.80;35.20
54558;DHT22;40452;50.080;20.040;2022-12-18T10:53:37;20.70;35.00
54558;DHT22;40452;50.080;20.040;2022-12-18T10:56:04;20.70;34.90
54558;DHT22;40452;50.080;20.040;2022-12-18T10:58:36;20.70;34.70
54558;DHT22;40452;50.080;20.040;2022-12-18T11:01:06;20.70;34.50
54558;DHT22;40452;50.080;20.040;2022-12-18T11:03:34;20.70;34.40
54558;DHT22;40452;50.080;20.040;2022-12-18T11:06:11;20.70;34.40
54558;DHT22;40452;50.080;20.040;2022-12-18T11:08:37;20.60;34.30
54558;DHT22;40452;50.080;20.040;2022-12-18T11:11:07;20.70;34.10
54558;DHT22;40452;50.080;20.040;2022-12-18T11:13:40;20.60;33.90
54558;DHT22;40452;50.080;20.040;2022-12-18T11:16:05;20.60;33.80
54558;DHT22;40452;50.080;20.040;2022-12-18T11:18:35;20.70;33.70
54558;DHT22;40452;50.080;20.040;2022-12-18T11:21:09;20.60;33.90
54558;DHT22;40452;50.080;20.040;2022-12-18T11:23:37;20.70;34.20
54558;DHT22;40452;50.080;20.040;2022-12-18T11:26:09;20.70;34.40
54558;DHT22;40452;50.080;20.040;2022-12-18T11:31:19;20.70;34.20
54558;DHT22;40452;50.080;20.040;2022-12-18T11:34:02;20.70;34.10
54558;DHT22;40452;50.080;20.040;2022-12-18T11:36:33;20.60;33.80
54558;DHT22;40452;50.080;20.040;2022-12-18T11:39:51;20.60;33.80
54558;DHT22;40452;50.080;20.040;2022-12-18T11:42:16;20.50;33.40
54558;DHT22;40452;50.080;20.040;2022-12-18T11:44:48;20.60;33.10
54558;DHT22;40452;50.080;20.040;2022-12-18T11:47:37;20.60;33.00
54558;DHT22;40452;50.080;20.040;2022-12-18T11:52:43;20.70;33.40
54558;DHT22;40452;50.080;20.040;2022-12-18T11:55:16;20.60;33.30
54558;DHT22;40452;50.080;20.040;2022-12-18T11:58:11;20.60;33.30
54558;DHT22;40452;50.080;20.040;2022-12-18T12:00:47;20.60;33.20
54558;DHT22;40452;50.080;20.040;2022-12-18T12:03:20;20.60;33.40
54558;DHT22;40452;50.080;20.040;2022-12-18T12:08:46;20.50;33.50
54558;DHT22;40452;50.080;20.040;2022-12-18T12:16:40;20.60;33.90
54558;DHT22;40452;50.080;20.040;2022-12-18T12:19:43;20.60;35.10
54558;DHT22;40452;50.080;20.040;2022-12-18T12:33:22;20.70;37.60
54558;DHT22;40452;50.080;20.040;2022-12-18T12:38:42;20.80;38.20
54558;DHT22;40452;50.080;20.040;2022-12-18T12:41:16;20.80;37.40
54558;DHT22;40452;50.080;20.040;2022-12-18T12:44:04;20.80;37.60
54558;DHT22;40452;50.080;20.040;2022-12-18T12:46:35;20.80;37.70
54558;DHT22;40452;50.080;20.040;2022-12-18T12:49:03;20.80;37.60
54558;DHT22;40452;50.080;20.040;2022-12-18T12:51:36;20.80;37.60
54558;DHT22;40452;50.080;20.040;2022-12-18T12:54:05;20.80;37.30
54558;DHT22;40452;50.080;20.040;2022-12-18T12:56:57;20.80;37.20
54558;DHT22;40452;50.080;20.040;2022-12-18T12:59:37;20.80;37.30
54558;DHT22;40452;50.080;20.040;2022-12-18T13:02:19;20.90;37.10
54558;DHT22;40452;50.080;20.040;2022-12-18T13:04:55;20.90;37.00
54558;DHT22;40452;50.080;20.040;2022-12-18T13:07:29;20.80;36.80
54558;DHT22;40452;50.080;20.040;2022-12-18T13:12:57;20.80;36.90
54558;DHT22;40452;50.080;20.040;2022-12-18T13:20:38;20.80;37.30
54558;DHT22;40452;50.080;20.040;2022-12-18T13:33:45;20.80;36.90
54558;DHT22;40452;50.080;20.040;2022-12-18T13:38:43;20.90;36.90
54558;DHT22;40452;50.080;20.040;2022-12-18T13:41:23;20.90;37.00
54558;DHT22;40452;50.080;20.040;2022-12-18T13:43:53;20.80;37.10
54558;DHT22;40452;50.080;20.040;2022-12-18T13:46:29;20.90;37.50
54558;DHT22;40452;50.080;20.040;2022-12-18T13:51:57;20.80;38.00
54558;DHT22;40452;50.080;20.040;2022-12-18T13:56:57;20.80;38.60
54558;DHT22;40452;50.080;20.040;2022-12-18T14:02:15;20.80;38.20
54558;DHT22;40452;50.080;20.040;2022-12-18T14:04:40;20.80;38.00
54558;DHT22;40452;50.080;20.040;2022-12-18T14:07:18;20.40;29.90
54558;DHT22;40452;50.080;20.040;2022-12-18T14:09:46;20.20;34.60
54558;DHT22;40452;50.080;20.040;2022-12-18T14:12:22;20.30;36.40
54558;DHT22;40452;50.080;20.040;2022-12-18T14:15:32;20.40;36.40
54558;DHT22;40452;50.080;20.040;2022-12-18T14:20:46;20.50;36.40
54558;DHT22;40452;50.080;20.040;2022-12-18T14:23:29;20.50;36.50
54558;DHT22;40452;50.080;20.040;2022-12-18T14:25:54;20.50;36.80
54558;DHT22;40452;50.080;20.040;2022-12-18T14:28:20;20.50;36.60
54558;DHT22;40452;50.080;20.040;2022-12-18T14:30:47;20.60;36.60
54558;DHT22;40452;50.080;20.040;2022-12-18T14:33:18;20.60;36.70
54558;DHT22;40452;50.080;20.040;2022-12-18T14:35:56;20.60;36.40
54558;DHT22;40452;50.080;20.040;2022-12-18T14:41:04;20.60;36.20
54558;DHT22;40452;50.080;20.040;2022-12-18T14:43:35;20.60;36.20
54558;DHT22;40452;50.080;20.040;2022-12-18T14:46:02;20.60;36.10
54558;DHT22;40452;50.080;20.040;2022-12-18T14:48:42;20.50;35.90
54558;DHT22;40452;50.080;20.040;2022-12-18T14:51:20;20.50;35.80
54558;DHT22;40452;50.080;20.040;2022-12-18T14:53:58;20.50;35.30
54558;DHT22;40452;50.080;20.040;2022-12-18T14:56:30;20.40;35.50
54558;DHT22;40452;50.080;20.040;2022-12-18T14:59:05;20.40;35.00
54558;DHT22;40452;50.080;20.040;2022-12-18T15:01:44;20.40;34.90
54558;DHT22;40452;50.080;20.040;2022-12-18T15:04:26;20.40;34.70
54558;DHT22;40452;50.080;20.040;2022-12-18T15:07:08;20.40;34.80
54558;DHT22;40452;50.080;20.040;2022-12-18T15:09:35;20.50;34.40
54558;DHT22;40452;50.080;20.040;2022-12-18T15:12:01;20.40;34.20
54558;DHT22;40452;50.080;20.040;2022-12-18T15:14:34;20.50;34.40
54558;DHT22;40452;50.080;20.040;2022-12-18T15:17:06;20.50;34.50
54558;DHT22;40452;50.080;20.040;2022-12-18T15:19:40;20.60;34.60
54558;DHT22;40452;50.080;20.040;2022-12-18T15:22:21;20.60;34.10
54558;DHT22;40452;50.080;20.040;2022-12-18T15:24:48;20.60;34.60
54558;DHT22;40452;50.080;20.040;2022-12-18T15:27:34;20.70;34.60
54558;DHT22;40452;50.080;20.040;2022-12-18T15:32:36;20.70;34.70
54558;DHT22;40452;50.080;20.040;2022-12-18T15:37:37;20.70;34.80
54558;DHT22;40452;50.080;20.040;2022-12-18T15:40:07;20.80;35.10
54558;DHT22;40452;50.080;20.040;2022-12-18T15:42:33;20.80;34.80
54558;DHT22;40452;50.080;20.040;2022-12-18T15:45:17;20.80;34.80
54558;DHT22;40452;50.080;20.040;2022-12-18T15:47:42;20.80;34.90
54558;DHT22;40452;50.080;20.040;2022-12-18T15:50:08;20.80;34.90
54558;DHT22;40452;50.080;20.040;2022-12-18T15:52:39;20.80;35.50
54558;DHT22;40452;50.080;20.040;2022-12-18T15:55:11;20.80;35.70
54558;DHT22;40452;50.080;20.040;2022-12-18T15:57:56;20.90;35.70
54558;DHT22;40452;50.080;20.040;2022-12-18T16:00:22;20.90;35.80
54558;DHT22;40452;50.080;20.040;2022-12-18T16:02:47;20.90;35.80
54558;DHT22;40452;50.080;20.040;2022-12-18T16:05:18;21.00;35.70
54558;DHT22;40452;50.080;20.040;2022-12-18T16:07:44;20.90;35.50
54558;DHT22;40452;50.080;20.040;2022-12-18T16:10:11;21.00;35.50
54558;DHT22;40452;50.080;20.040;2022-12-18T16:12:36;21.00;35.40
54558;DHT22;40452;50.080;20.040;2022-12-18T16:15:03;21.10;35.20
54558;DHT22;40452;50.080;20.040;2022-12-18T16:17:29;21.00;35.10
54558;DHT22;40452;50.080;20.040;2022-12-18T16:19:55;21.00;35.00
54558;DHT22;40452;50.080;20.040;2022-12-18T16:22:23;21.10;35.00
54558;DHT22;40452;50.080;20.040;2022-12-18T16:24:50;21.10;34.70
54558;DHT22;40452;50.080;20.040;2022-12-18T16:27:16;21.00;34.50
54558;DHT22;40452;50.080;20.040;2022-12-18T16:29:42;21.00;34.60
54558;DHT22;40452;50.080;20.040;2022-12-18T16:32:12;21.10;34.30
54558;DHT22;40452;50.080;20.040;2022-12-18T16:34:38;21.10;34.20
54558;DHT22;40452;50.080;20.040;2022-12-18T16:37:05;21.00;34.70
54558;DHT22;40452;50.080;20.040;2022-12-18T16:39:32;21.10;34.20
54558;DHT22;40452;50.080;20.040;2022-12-18T16:41:58;21.00;33.80
54558;DHT22;40452;50.080;20.040;2022-12-18T16:44:24;21.00;33.60
54558;DHT22;40452;50.080;20.040;2022-12-18T16:46:49;20.90;33.60
54558;DHT22;40452;50.080;20.040;2022-12-18T16:49:17;20.90;33.70
54558;DHT22;40452;50.080;20.040;2022-12-18T16:51:43;20.90;34.20
54558;DHT22;40452;50.080;20.040;2022-12-18T16:54:09;20.90;33.90
54558;DHT22;40452;50.080;20.040;2022-12-18T16:56:34;20.90;33.60
54558;DHT22;40452;50.080;20.040;2022-12-18T16:59:01;20.90;33.00
54558;DHT22;40452;50.080;20.040;2022-12-18T17:01:28;20.90;32.90
54558;DHT22;40452;50.080;20.040;2022-12-18T17:04:05;20.80;32.50
54558;DHT22;40452;50.080;20.040;2022-12-18T17:06:38;20.80;31.80
54558;DHT22;40452;50.080;20.040;2022-12-18T17:09:07;20.90;32.30
54558;DHT22;40452;50.080;20.040;2022-12-18T17:11:34;20.80;32.60
54558;DHT22;40452;50.080;20.040;2022-12-18T17:14:06;20.80;32.40
54558;DHT22;40452;50.080;20.040;2022-12-18T17:16:31;20.80;32.50
54558;DHT22;40452;50.080;20.040;2022-12-18T17:18:57;20.80;32.60
54558;DHT22;40452;50.080;20.040;2022-12-18T17:21:22;20.80;32.80
54558;DHT22;40452;50.080;20.040;2022-12-18T17:23:48;20.80;32.60
54558;DHT22;40452;50.080;20.040;2022-12-18T17:26:14;20.80;33.00
54558;DHT22;40452;50.080;20.040;2022-12-18T17:28:40;20.80;32.90
54558;DHT22;40452;50.080;20.040;2022-12-18T17:31:15;20.80;32.60
54558;DHT22;40452;50.080;20.040;2022-12-18T17:33:41;20.80;32.70
54558;DHT22;40452;50.080;20.040;2022-12-18T17:36:07;20.80;33.00
54558;DHT22;40452;50.080;20.040;2022-12-18T17:38:33;20.70;32.90
54558;DHT22;40452;50.080;20.040;2022-12-18T17:41:03;20.70;32.90
54558;DHT22;40452;50.080;20.040;2022-12-18T17:43:30;20.70;33.30
54558;DHT22;40452;50.080;20.040;2022-12-18T17:45:56;20.80;33.40
54558;DHT22;40452;50.080;20.040;2022-12-18T17:48:25;20.80;33.40
54558;DHT22;40452;50.080;20.040;2022-12-18T17:50:51;20.80;33.40
54558;DHT22;40452;50.080;20.040;2022-12-18T17:53:16;20.80;33.10
54558;DHT22;40452;50.080;20.040;2022-12-18T17:55:42;20.70;32.70
54558;DHT22;40452;50.080;20.040;2022-12-18T17:58:07;20.70;33.00
54558;DHT22;40452;50.080;20.040;2022-12-18T18:00:33;20.80;32.80
54558;DHT22;40452;50.080;20.040;2022-12-18T18:02:58;20.80;32.60
54558;DHT22;40452;50.080;20.040;2022-12-18T18:05:24;20.80;32.60
54558;DHT22;40452;50.080;20.040;2022-12-18T18:07:49;20.70;32.40
54558;DHT22;40452;50.080;20.040;2022-12-18T18:10:15;20.60;32.40
54558;DHT22;40452;50.080;20.040;2022-12-18T18:12:41;20.60;32.30
54558;DHT22;40452;50.080;20.040;2022-12-18T18:15:25;20.70;32.40
54558;DHT22;40452;50.080;20.040;2022-12-18T18:17:50;20.70;32.20
54558;DHT22;40452;50.080;20.040;2022-12-18T18:20:16;20.80;32.40
54558;DHT22;40452;50.080;20.040;2022-12-18T18:22:42;20.70;32.30
54558;DHT22;40452;50.080;20.040;2022-12-18T18:25:08;20.70;32.70
54558;DHT22;40452;50.080;20.040;2022-12-18T18:27:33;20.70;32.50
54558;DHT22;40452;50.080;20.040;2022-12-18T18:29:59;20.70;33.60
54558;DHT22;40452;50.080;20.040;2022-12-18T18:32:24;20.80;32.90
54558;DHT22;40452;50.080;20.040;2022-12-18T18:34:50;20.80;33.00
54558;DHT22;40452;50.080;20.040;2022-12-18T18:37:16;20.80;33.10
54558;DHT22;40452;50.080;20.040;2022-12-18T18:39:41;20.70;32.90
54558;DHT22;40452;50.080;20.040;2022-12-18T18:42:07;20.80;33.10
54558;DHT22;40452;50.080;20.040;2022-12-18T18:44:33;20.70;33.10
54558;DHT22;40452;50.080;20.040;2022-12-18T18:46:59;20.70;33.10
54558;DHT22;40452;50.080;20.040;2022-12-18T18:49:25;20.70;33.00
54558;DHT22;40452;50.080;20.040;2022-12-18T18:51:53;20.70;33.10
54558;DHT22;40452;50.080;20.040;2022-12-18T18:54:19;20.70;33.10
54558;DHT22;40452;50.080;20.040;2022-12-18T18:56:45;20.70;33.00
54558;DHT22;40452;50.080;20.040;2022-12-18T18:59:12;20.70;33.90
54558;DHT22;40452;50.080;20.040;2022-12-18T19:01:37;20.70;34.80
54558;DHT22;40452;50.080;20.040;2022-12-18T19:04:03;20.70;35.80
54558;DHT22;40452;50.080;20.040;2022-12-18T19:06:29;20.70;35.90
54558;DHT22;40452;50.080;20.040;2022-12-18T19:08:56;20.60;34.20
54558;DHT22;40452;50.080;20.040;2022-12-18T19:11:24;20.50;33.70
54558;DHT22;40452;50.080;20.040;2022-12-18T19:14:10;20.50;33.30
54558;DHT22;40452;50.080;20.040;2022-12-18T19:16:36;20.50;33.50
54558;DHT22;40452;50.080;20.040;2022-12-18T19:19:03;20.50;33.10
54558;DHT22;40452;50.080;20.040;2022-12-18T19:21:28;20.50;32.90
54558;DHT22;40452;50.080;20.040;2022-12-18T19:23:55;20.50;32.70
54558;DHT22;40452;50.080;20.040;2022-12-18T19:26:21;20.50;32.00
54558;DHT22;40452;50.080;20.040;2022-12-18T19:28:47;20.50;32.30
54558;DHT22;40452;50.080;20.040;2022-12-18T19:31:15;20.50;32.10
54558;DHT22;40452;50.080;20.040;2022-12-18T19:33:43;20.60;32.40
54558;DHT22;40452;50.080;20.040;2022-12-18T19:36:23;20.60;32.40
54558;DHT22;40452;50.080;20.040;2022-12-18T19:38:50;20.60;32.50
54558;DHT22;40452;50.080;20.040;2022-12-18T19:41:16;20.60;31.70
54558;DHT22;40452;50.080;20.040;2022-12-18T19:43:42;20.70;31.60
54558;DHT22;40452;50.080;20.040;2022-12-18T19:46:11;20.70;30.90
54558;DHT22;40452;50.080;20.040;2022-12-18T19:48:37;20.60;31.20
54558;DHT22;40452;50.080;20.040;2022-12-18T19:51:04;20.70;30.80
54558;DHT22;40452;50.080;20.040;2022-12-18T19:53:30;20.60;30.60
54558;DHT22;40452;50.080;20.040;2022-12-18T19:55:56;20.60;30.50
54558;DHT22;40452;50.080;20.040;2022-12-18T19:58:22;20.60;30.40
54558;DHT22;40452;50.080;20.040;2022-12-18T20:00:47;20.60;30.30
54558;DHT22;40452;50.080;20.040;2022-12-18T20:03:13;20.60;30.20
54558;DHT22;40452;50.080;20.040;2022-12-18T20:05:38;20.50;30.00
54558;DHT22;40452;50.080;20.040;2022-12-18T20:08:04;20.60;30.00
54558;DHT22;40452;50.080;20.040;2022-12-18T20:10:29;20.60;30.00
54558;DHT22;40452;50.080;20.040;2022-12-18T20:12:56;20.50;29.90
54558;DHT22;40452;50.080;20.040;2022-12-18T20:15:22;20.60;29.90
54558;DHT22;40452;50.080;20.040;2022-12-18T20:17:47;20.60;29.80
54558;DHT22;40452;50.080;20.040;2022-12-18T20:20:13;20.50;29.70
54558;DHT22;40452;50.080;20.040;2022-12-18T20:22:38;20.50;29.70
54558;DHT22;40452;50.080;20.040;2022-12-18T20:25:04;20.50;29.70
54558;DHT22;40452;50.080;20.040;2022-12-18T20:27:30;20.50;29.50
54558;DHT22;40452;50.080;20.040;2022-12-18T20:29:55;20.50;29.40
54558;DHT22;40452;50.080;20.040;2022-12-18T20:32:21;20.50;29.40
54558;DHT22;40452;50.080;20.040;2022-12-18T20:34:46;20.50;29.30
54558;DHT22;40452;50.080;20.040;2022-12-18T20:37:11;20.50;29.30
54558;DHT22;40452;50.080;20.040;2022-12-18T20:39:37;20.50;29.30
54558;DHT22;40452;50.080;20.040;2022-12-18T20:42:03;20.50;29.20
54558;DHT22;40452;50.080;20.040;2022-12-18T20:44:28;20.50;29.30
54558;DHT22;40452;50.080;20.040;2022-12-18T20:46:57;20.50;29.30
54558;DHT22;40452;50.080;20.040;2022-12-18T20:49:25;20.50;29.30
54558;DHT22;40452;50.080;20.040;2022-12-18T20:51:53;20.50;29.20
54558;DHT22;40452;50.080;20.040;2022-12-18T20:54:21;20.50;29.20
54558;DHT22;40452;50.080;20.040;2022-12-18T20:56:47;20.50;29.20
54558;DHT22;40452;50.080;20.040;2022-12-18T20:59:13;20.50;29.20
54558;DHT22;40452;50.080;20.040;2022-12-18T21:01:38;20.50;29.10
54558;DHT22;40452;50.080;20.040;2022-12-18T21:04:04;20.50;29.10
54558;DHT22;40452;50.080;20.040;2022-12-18T21:06:30;20.50;29.00
54558;DHT22;40452;50.080;20.040;2022-12-18T21:08:55;20.50;28.90
54558;DHT22;40452;50.080;20.040;2022-12-18T21:14:14;20.50;28.90
54558;DHT22;40452;50.080;20.040;2022-12-18T21:16:40;20.50;28.90
54558;DHT22;40452;50.080;20.040;2022-12-18T21:19:08;20.50;28.90
54558;DHT22;40452;50.080;20.040;2022-12-18T21:21:34;20.50;28.80
54558;DHT22;40452;50.080;20.040;2022-12-18T21:23:59;20.50;28.90
54558;DHT22;40452;50.080;20.040;2022-12-18T21:26:26;20.50;28.70
54558;DHT22;40452;50.080;20.040;2022-12-18T21:28:53;20.50;28.90
54558;DHT22;40452;50.080;20.040;2022-12-18T21:31:20;20.50;28.90
54558;DHT22;40452;50.080;20.040;2022-12-18T21:33:47;20.60;28.80
54558;DHT22;40452;50.080;20.040;2022-12-18T21:36:13;20.50;28.90
54558;DHT22;40452;50.080;20.040;2022-12-18T21:38:39;20.60;28.80
54558;DHT22;40452;50.080;20.040;2022-12-18T21:41:09;20.50;29.10
54558;DHT22;40452;50.080;20.040;2022-12-18T21:43:37;20.50;28.90
54558;DHT22;40452;50.080;20.040;2022-12-18T21:46:21;20.50;28.80
54558;DHT22;40452;50.080;20.040;2022-12-18T21:48:47;20.50;28.80
54558;DHT22;40452;50.080;20.040;2022-12-18T21:51:12;20.50;28.80
54558;DHT22;40452;50.080;20.040;2022-12-18T21:53:38;20.50;28.40
54558;DHT22;40452;50.080;20.040;2022-12-18T21:56:04;20.50;28.80
54558;DHT22;40452;50.080;20.040;2022-12-18T21:58:30;20.50;28.70
54558;DHT22;40452;50.080;20.040;2022-12-18T22:00:55;20.50;29.30
54558;DHT22;40452;50.080;20.040;2022-12-18T22:03:21;20.50;28.60
54558;DHT22;40452;50.080;20.040;2022-12-18T22:05:46;20.50;28.20
54558;DHT22;40452;50.080;20.040;2022-12-18T22:08:12;20.50;28.60
54558;DHT22;40452;50.080;20.040;2022-12-18T22:10:38;20.50;28.30
54558;DHT22;40452;50.080;20.040;2022-12-18T22:13:05;20.50;28.50
54558;DHT22;40452;50.080;20.040;2022-12-18T22:15:31;20.50;28.60
54558;DHT22;40452;50.080;20.040;2022-12-18T22:17:57;20.50;28.30
